Accueil
METAR-TAF:

METAR-TAF

Aéroports :

Aéroport de Stuttgart

Stuttgart, Allemagne

latitude: 48-41N, longitude: 009-13E, altitude: 396 m

Observation

Le bulletin a été fait il y a 29 minutes, à 22:20 UTC
Vent 11 kt de est
Température 2°C
Humidité 75%
Pression 1007 hPa
Visibilité 10 km ou plus
Ciel couvert à une hauteur de 2300 ft

METAR: EDDS 192220Z 08011KT 9999 OVC023 02/M02 Q1007

Heure: 23:49 (22:49 UTC)

Prévision

Le bulletin a été fait il y a 2 heures et 1 minutes, à 20:48 UTC
Prévision valable du 19 à 20 UTC au 20 à 18 UTC
Vent 10 kt de est/nord-est
Visibilité 10 km ou plus
Nuages fragmentés à une hauteur de 3000 ft

TAF: EDDS 192048Z 1920/2018 06010KT 9999 BKN030

Observations et prévisions météorologiques de plus de 4000 aéroports (messages METAR et TAF).

Les stations disponibles sont représentées par des disques jaunes et rouges sur la carte.

Passer la souris dessus pour voir le nom de la station.

Cliquer dessus pour voir les observations et prévisions météorologiques.

Pour changer de carte: cliquez sur les boutons verts avec une croix noire pour zoomer, sur le bouton vert avec un tiret pour effectuer un zoom arrière, ou sur les flèches vertes pour les cartes adjacentes.


METAR-TAF: